sensor_id;sensor_type;location;lat;lon;timestamp;P1;durP1;ratioP1;P2;durP2;ratioP2
7162;SDS011;3623;47.098;15.446;2022-08-03T00:02:21;4.60;;;4.30;;
7162;SDS011;3623;47.098;15.446;2022-08-03T00:04:48;5.30;;;4.90;;
7162;SDS011;3623;47.098;15.446;2022-08-03T00:07:15;5.37;;;4.97;;
7162;SDS011;3623;47.098;15.446;2022-08-03T00:09:42;6.20;;;5.07;;
7162;SDS011;3623;47.098;15.446;2022-08-03T00:12:12;5.40;;;5.00;;
7162;SDS011;3623;47.098;15.446;2022-08-03T00:14:39;6.90;;;5.07;;
7162;SDS011;3623;47.098;15.446;2022-08-03T00:17:06;4.87;;;4.57;;
7162;SDS011;3623;47.098;15.446;2022-08-03T00:19:33;4.80;;;4.50;;
7162;SDS011;3623;47.098;15.446;2022-08-03T00:22:00;5.13;;;4.73;;
7162;SDS011;3623;47.098;15.446;2022-08-03T00:24:28;5.33;;;4.87;;
7162;SDS011;3623;47.098;15.446;2022-08-03T00:26:55;5.27;;;4.87;;
7162;SDS011;3623;47.098;15.446;2022-08-03T00:29:24;5.73;;;5.37;;
7162;SDS011;3623;47.098;15.446;2022-08-03T00:31:51;5.40;;;5.00;;
7162;SDS011;3623;47.098;15.446;2022-08-03T00:34:18;6.43;;;5.53;;
7162;SDS011;3623;47.098;15.446;2022-08-03T00:36:45;5.20;;;4.90;;
7162;SDS011;3623;47.098;15.446;2022-08-03T00:39:12;5.67;;;5.20;;
7162;SDS011;3623;47.098;15.446;2022-08-03T00:41:39;8.70;;;5.77;;
7162;SDS011;3623;47.098;15.446;2022-08-03T00:44:06;6.20;;;5.23;;
7162;SDS011;3623;47.098;15.446;2022-08-03T00:46:35;5.17;;;4.70;;
7162;SDS011;3623;47.098;15.446;2022-08-03T00:49:02;26.37;;;6.83;;
7162;SDS011;3623;47.098;15.446;2022-08-03T00:51:29;5.67;;;5.33;;
7162;SDS011;3623;47.098;15.446;2022-08-03T00:53:58;5.17;;;4.80;;
7162;SDS011;3623;47.098;15.446;2022-08-03T00:56:26;4.97;;;4.57;;
7162;SDS011;3623;47.098;15.446;2022-08-03T00:58:53;6.00;;;5.50;;
7162;SDS011;3623;47.098;15.446;2022-08-03T01:01:25;5.27;;;4.83;;
7162;SDS011;3623;47.098;15.446;2022-08-03T01:03:54;6.13;;;5.20;;
7162;SDS011;3623;47.098;15.446;2022-08-03T01:06:22;6.53;;;6.00;;
7162;SDS011;3623;47.098;15.446;2022-08-03T01:08:53;5.63;;;5.23;;
7162;SDS011;3623;47.098;15.446;2022-08-03T01:11:29;5.23;;;4.80;;
7162;SDS011;3623;47.098;15.446;2022-08-03T01:14:05;5.77;;;5.27;;
7162;SDS011;3623;47.098;15.446;2022-08-03T01:16:39;5.70;;;5.30;;
7162;SDS011;3623;47.098;15.446;2022-08-03T01:19:21;5.77;;;5.37;;
7162;SDS011;3623;47.098;15.446;2022-08-03T01:22:03;5.90;;;5.50;;
7162;SDS011;3623;47.098;15.446;2022-08-03T01:24:43;5.53;;;5.10;;
7162;SDS011;3623;47.098;15.446;2022-08-03T01:27:17;5.80;;;5.40;;
7162;SDS011;3623;47.098;15.446;2022-08-03T01:29:58;6.13;;;5.40;;
7162;SDS011;3623;47.098;15.446;2022-08-03T01:32:33;6.10;;;5.60;;
7162;SDS011;3623;47.098;15.446;2022-08-03T01:35:07;6.13;;;5.63;;
7162;SDS011;3623;47.098;15.446;2022-08-03T01:37:38;5.30;;;5.00;;
7162;SDS011;3623;47.098;15.446;2022-08-03T01:40:08;5.63;;;5.23;;
7162;SDS011;3623;47.098;15.446;2022-08-03T01:42:47;5.93;;;5.53;;
7162;SDS011;3623;47.098;15.446;2022-08-03T01:45:18;5.90;;;5.50;;
7162;SDS011;3623;47.098;15.446;2022-08-03T01:47:47;5.57;;;5.17;;
7162;SDS011;3623;47.098;15.446;2022-08-03T01:50:18;4.97;;;4.63;;
7162;SDS011;3623;47.098;15.446;2022-08-03T01:52:48;5.70;;;5.27;;
7162;SDS011;3623;47.098;15.446;2022-08-03T01:55:17;6.03;;;5.57;;
7162;SDS011;3623;47.098;15.446;2022-08-03T01:57:45;5.40;;;5.10;;
7162;SDS011;3623;47.098;15.446;2022-08-03T02:00:15;6.67;;;6.03;;
7162;SDS011;3623;47.098;15.446;2022-08-03T02:02:44;6.23;;;5.80;;
7162;SDS011;3623;47.098;15.446;2022-08-03T02:05:14;6.87;;;6.37;;
7162;SDS011;3623;47.098;15.446;2022-08-03T02:07:44;5.70;;;5.30;;
7162;SDS011;3623;47.098;15.446;2022-08-03T02:10:14;6.27;;;5.87;;
7162;SDS011;3623;47.098;15.446;2022-08-03T02:12:44;5.50;;;5.20;;
7162;SDS011;3623;47.098;15.446;2022-08-03T02:15:14;5.50;;;5.20;;
7162;SDS011;3623;47.098;15.446;2022-08-03T02:17:42;6.30;;;5.90;;
7162;SDS011;3623;47.098;15.446;2022-08-03T02:20:13;6.30;;;6.00;;
7162;SDS011;3623;47.098;15.446;2022-08-03T02:22:42;6.60;;;6.10;;
7162;SDS011;3623;47.098;15.446;2022-08-03T02:25:11;6.70;;;6.20;;
7162;SDS011;3623;47.098;15.446;2022-08-03T02:27:42;7.33;;;6.77;;
7162;SDS011;3623;47.098;15.446;2022-08-03T02:30:16;6.40;;;5.80;;
7162;SDS011;3623;47.098;15.446;2022-08-03T02:32:47;6.80;;;6.30;;
7162;SDS011;3623;47.098;15.446;2022-08-03T02:35:19;6.80;;;6.40;;
7162;SDS011;3623;47.098;15.446;2022-08-03T02:37:49;6.67;;;6.07;;
7162;SDS011;3623;47.098;15.446;2022-08-03T02:40:18;7.00;;;6.40;;
7162;SDS011;3623;47.098;15.446;2022-08-03T02:42:49;7.30;;;6.70;;
7162;SDS011;3623;47.098;15.446;2022-08-03T02:45:20;5.50;;;5.20;;
7162;SDS011;3623;47.098;15.446;2022-08-03T02:47:51;6.40;;;6.10;;
7162;SDS011;3623;47.098;15.446;2022-08-03T02:50:21;7.03;;;6.30;;
7162;SDS011;3623;47.098;15.446;2022-08-03T02:52:49;6.33;;;5.93;;
7162;SDS011;3623;47.098;15.446;2022-08-03T02:55:18;5.80;;;5.40;;
7162;SDS011;3623;47.098;15.446;2022-08-03T02:57:46;6.40;;;5.50;;
7162;SDS011;3623;47.098;15.446;2022-08-03T03:00:14;6.03;;;5.53;;
7162;SDS011;3623;47.098;15.446;2022-08-03T03:02:42;6.53;;;6.13;;
7162;SDS011;3623;47.098;15.446;2022-08-03T03:05:12;6.63;;;6.13;;
7162;SDS011;3623;47.098;15.446;2022-08-03T03:07:43;6.53;;;6.13;;
7162;SDS011;3623;47.098;15.446;2022-08-03T03:10:11;5.60;;;5.20;;
7162;SDS011;3623;47.098;15.446;2022-08-03T03:12:38;7.07;;;5.90;;
7162;SDS011;3623;47.098;15.446;2022-08-03T03:15:08;6.30;;;5.70;;
7162;SDS011;3623;47.098;15.446;2022-08-03T03:17:36;6.10;;;5.60;;
7162;SDS011;3623;47.098;15.446;2022-08-03T03:20:05;8.10;;;5.63;;
7162;SDS011;3623;47.098;15.446;2022-08-03T03:22:35;6.73;;;5.87;;
7162;SDS011;3623;47.098;15.446;2022-08-03T03:25:04;8.80;;;5.97;;
7162;SDS011;3623;47.098;15.446;2022-08-03T03:27:32;5.97;;;5.57;;
7162;SDS011;3623;47.098;15.446;2022-08-03T03:30:00;6.17;;;5.77;;
7162;SDS011;3623;47.098;15.446;2022-08-03T03:32:29;7.20;;;6.50;;
7162;SDS011;3623;47.098;15.446;2022-08-03T03:34:56;6.47;;;6.00;;
7162;SDS011;3623;47.098;15.446;2022-08-03T03:37:25;6.10;;;5.60;;
7162;SDS011;3623;47.098;15.446;2022-08-03T03:39:53;6.10;;;5.70;;
7162;SDS011;3623;47.098;15.446;2022-08-03T03:42:21;7.23;;;6.70;;
7162;SDS011;3623;47.098;15.446;2022-08-03T03:44:48;7.10;;;6.50;;
7162;SDS011;3623;47.098;15.446;2022-08-03T03:47:16;7.27;;;5.80;;
7162;SDS011;3623;47.098;15.446;2022-08-03T03:49:43;7.37;;;5.70;;
7162;SDS011;3623;47.098;15.446;2022-08-03T03:52:11;6.67;;;6.17;;
7162;SDS011;3623;47.098;15.446;2022-08-03T03:54:38;9.07;;;7.50;;
7162;SDS011;3623;47.098;15.446;2022-08-03T03:57:08;6.07;;;5.57;;
7162;SDS011;3623;47.098;15.446;2022-08-03T03:59:36;8.70;;;8.00;;
7162;SDS011;3623;47.098;15.446;2022-08-03T04:02:04;7.33;;;6.63;;
7162;SDS011;3623;47.098;15.446;2022-08-03T04:04:31;6.40;;;5.73;;
7162;SDS011;3623;47.098;15.446;2022-08-03T04:07:16;6.57;;;5.97;;
7162;SDS011;3623;47.098;15.446;2022-08-03T04:10:01;7.30;;;6.70;;
7162;SDS011;3623;47.098;15.446;2022-08-03T04:12:52;7.10;;;6.50;;
7162;SDS011;3623;47.098;15.446;2022-08-03T04:15:21;7.00;;;6.30;;
7162;SDS011;3623;47.098;15.446;2022-08-03T04:17:50;6.90;;;6.30;;
7162;SDS011;3623;47.098;15.446;2022-08-03T04:20:20;6.93;;;6.40;;
7162;SDS011;3623;47.098;15.446;2022-08-03T04:22:51;6.83;;;6.23;;
7162;SDS011;3623;47.098;15.446;2022-08-03T04:25:22;8.13;;;7.30;;
7162;SDS011;3623;47.098;15.446;2022-08-03T04:27:55;7.00;;;6.30;;
7162;SDS011;3623;47.098;15.446;2022-08-03T04:30:25;9.57;;;7.30;;
7162;SDS011;3623;47.098;15.446;2022-08-03T04:32:54;7.67;;;7.00;;
7162;SDS011;3623;47.098;15.446;2022-08-03T04:35:22;8.53;;;7.73;;
7162;SDS011;3623;47.098;15.446;2022-08-03T04:37:51;9.13;;;8.10;;
7162;SDS011;3623;47.098;15.446;2022-08-03T04:40:21;7.83;;;7.13;;
7162;SDS011;3623;47.098;15.446;2022-08-03T04:42:56;8.63;;;7.03;;
7162;SDS011;3623;47.098;15.446;2022-08-03T04:45:25;6.80;;;6.10;;
7162;SDS011;3623;47.098;15.446;2022-08-03T04:47:53;7.17;;;6.57;;
7162;SDS011;3623;47.098;15.446;2022-08-03T04:50:21;8.40;;;6.90;;
7162;SDS011;3623;47.098;15.446;2022-08-03T04:52:48;7.00;;;6.30;;
7162;SDS011;3623;47.098;15.446;2022-08-03T04:55:23;6.80;;;6.30;;
7162;SDS011;3623;47.098;15.446;2022-08-03T04:57:51;6.90;;;6.30;;
7162;SDS011;3623;47.098;15.446;2022-08-03T05:00:21;8.20;;;7.40;;
7162;SDS011;3623;47.098;15.446;2022-08-03T05:02:48;6.97;;;6.37;;
7162;SDS011;3623;47.098;15.446;2022-08-03T05:05:16;6.23;;;5.63;;
7162;SDS011;3623;47.098;15.446;2022-08-03T05:07:46;8.13;;;6.87;;
7162;SDS011;3623;47.098;15.446;2022-08-03T05:10:13;7.67;;;6.87;;
7162;SDS011;3623;47.098;15.446;2022-08-03T05:12:44;7.10;;;6.07;;
7162;SDS011;3623;47.098;15.446;2022-08-03T05:15:13;6.53;;;5.97;;
7162;SDS011;3623;47.098;15.446;2022-08-03T05:17:42;6.90;;;6.10;;
7162;SDS011;3623;47.098;15.446;2022-08-03T05:20:09;6.53;;;5.93;;
7162;SDS011;3623;47.098;15.446;2022-08-03T05:22:37;8.27;;;6.00;;
7162;SDS011;3623;47.098;15.446;2022-08-03T05:25:04;9.23;;;6.50;;
7162;SDS011;3623;47.098;15.446;2022-08-03T05:27:32;7.33;;;6.63;;
7162;SDS011;3623;47.098;15.446;2022-08-03T05:30:00;6.97;;;6.37;;
7162;SDS011;3623;47.098;15.446;2022-08-03T05:32:27;7.03;;;6.50;;
7162;SDS011;3623;47.098;15.446;2022-08-03T05:35:05;6.57;;;5.93;;
7162;SDS011;3623;47.098;15.446;2022-08-03T05:37:32;8.30;;;5.60;;
7162;SDS011;3623;47.098;15.446;2022-08-03T05:40:00;6.93;;;6.43;;
7162;SDS011;3623;47.098;15.446;2022-08-03T05:42:27;5.80;;;5.30;;
7162;SDS011;3623;47.098;15.446;2022-08-03T05:44:54;7.00;;;6.40;;
7162;SDS011;3623;47.098;15.446;2022-08-03T05:47:21;5.90;;;5.37;;
7162;SDS011;3623;47.098;15.446;2022-08-03T05:49:48;6.70;;;6.13;;
7162;SDS011;3623;47.098;15.446;2022-08-03T05:52:17;7.30;;;6.50;;
7162;SDS011;3623;47.098;15.446;2022-08-03T05:54:44;7.53;;;6.83;;
7162;SDS011;3623;47.098;15.446;2022-08-03T05:57:11;7.23;;;6.53;;
7162;SDS011;3623;47.098;15.446;2022-08-03T05:59:38;7.33;;;6.57;;
7162;SDS011;3623;47.098;15.446;2022-08-03T06:02:05;6.87;;;6.27;;
7162;SDS011;3623;47.098;15.446;2022-08-03T06:04:32;6.73;;;5.93;;
7162;SDS011;3623;47.098;15.446;2022-08-03T06:06:59;7.77;;;6.33;;
7162;SDS011;3623;47.098;15.446;2022-08-03T06:09:28;6.17;;;5.57;;
7162;SDS011;3623;47.098;15.446;2022-08-03T06:11:55;8.00;;;6.07;;
7162;SDS011;3623;47.098;15.446;2022-08-03T06:14:22;6.63;;;6.03;;
7162;SDS011;3623;47.098;15.446;2022-08-03T06:16:49;6.87;;;6.20;;
7162;SDS011;3623;47.098;15.446;2022-08-03T06:19:17;6.30;;;5.73;;
7162;SDS011;3623;47.098;15.446;2022-08-03T06:21:44;7.23;;;6.33;;
7162;SDS011;3623;47.098;15.446;2022-08-03T06:24:11;5.80;;;5.30;;
7162;SDS011;3623;47.098;15.446;2022-08-03T06:26:39;7.17;;;5.57;;
7162;SDS011;3623;47.098;15.446;2022-08-03T06:29:07;6.23;;;5.63;;
7162;SDS011;3623;47.098;15.446;2022-08-03T06:31:34;8.77;;;5.97;;
7162;SDS011;3623;47.098;15.446;2022-08-03T06:34:02;6.67;;;5.80;;
7162;SDS011;3623;47.098;15.446;2022-08-03T06:36:31;5.97;;;5.47;;
7162;SDS011;3623;47.098;15.446;2022-08-03T06:38:59;4.90;;;4.33;;
7162;SDS011;3623;47.098;15.446;2022-08-03T06:41:26;5.63;;;5.10;;
7162;SDS011;3623;47.098;15.446;2022-08-03T06:43:55;9.33;;;6.30;;
7162;SDS011;3623;47.098;15.446;2022-08-03T06:46:23;5.60;;;5.20;;
7162;SDS011;3623;47.098;15.446;2022-08-03T06:48:52;5.53;;;5.13;;
7162;SDS011;3623;47.098;15.446;2022-08-03T06:51:20;5.57;;;5.13;;
7162;SDS011;3623;47.098;15.446;2022-08-03T06:53:47;9.20;;;6.00;;
7162;SDS011;3623;47.098;15.446;2022-08-03T06:56:15;5.77;;;5.30;;
7162;SDS011;3623;47.098;15.446;2022-08-03T06:58:42;5.87;;;5.37;;
7162;SDS011;3623;47.098;15.446;2022-08-03T07:01:12;6.13;;;4.77;;
7162;SDS011;3623;47.098;15.446;2022-08-03T07:03:39;6.93;;;4.50;;
7162;SDS011;3623;47.098;15.446;2022-08-03T07:06:07;5.30;;;4.83;;
7162;SDS011;3623;47.098;15.446;2022-08-03T07:08:34;5.00;;;4.70;;
7162;SDS011;3623;47.098;15.446;2022-08-03T07:11:01;3.77;;;3.17;;
7162;SDS011;3623;47.098;15.446;2022-08-03T07:13:29;2.53;;;2.43;;
7162;SDS011;3623;47.098;15.446;2022-08-03T07:15:56;2.67;;;2.57;;
7162;SDS011;3623;47.098;15.446;2022-08-03T07:18:25;3.27;;;3.10;;
7162;SDS011;3623;47.098;15.446;2022-08-03T07:20:52;3.10;;;2.80;;
7162;SDS011;3623;47.098;15.446;2022-08-03T07:23:19;2.50;;;2.40;;
7162;SDS011;3623;47.098;15.446;2022-08-03T07:25:46;3.87;;;2.70;;
7162;SDS011;3623;47.098;15.446;2022-08-03T07:28:14;2.60;;;2.40;;
7162;SDS011;3623;47.098;15.446;2022-08-03T07:30:41;2.60;;;2.50;;
7162;SDS011;3623;47.098;15.446;2022-08-03T07:33:08;3.10;;;2.90;;
7162;SDS011;3623;47.098;15.446;2022-08-03T07:35:37;2.30;;;2.20;;
7162;SDS011;3623;47.098;15.446;2022-08-03T07:38:05;4.00;;;2.50;;
7162;SDS011;3623;47.098;15.446;2022-08-03T07:40:32;4.07;;;3.67;;
7162;SDS011;3623;47.098;15.446;2022-08-03T07:42:59;2.73;;;2.53;;
7162;SDS011;3623;47.098;15.446;2022-08-03T07:45:28;2.57;;;2.47;;
7162;SDS011;3623;47.098;15.446;2022-08-03T07:47:55;2.60;;;2.50;;
7162;SDS011;3623;47.098;15.446;2022-08-03T07:50:23;3.60;;;3.30;;
7162;SDS011;3623;47.098;15.446;2022-08-03T07:52:51;2.50;;;2.30;;
7162;SDS011;3623;47.098;15.446;2022-08-03T07:55:20;2.70;;;2.60;;
7162;SDS011;3623;47.098;15.446;2022-08-03T07:57:58;3.47;;;3.17;;
7162;SDS011;3623;47.098;15.446;2022-08-03T08:00:29;4.70;;;2.70;;
7162;SDS011;3623;47.098;15.446;2022-08-03T08:02:57;2.30;;;2.20;;
7162;SDS011;3623;47.098;15.446;2022-08-03T08:05:24;2.13;;;2.03;;
7162;SDS011;3623;47.098;15.446;2022-08-03T08:07:53;3.20;;;3.00;;
7162;SDS011;3623;47.098;15.446;2022-08-03T08:10:22;2.40;;;2.30;;
7162;SDS011;3623;47.098;15.446;2022-08-03T08:12:49;2.50;;;2.40;;
7162;SDS011;3623;47.098;15.446;2022-08-03T08:15:17;2.73;;;2.53;;
7162;SDS011;3623;47.098;15.446;2022-08-03T08:17:44;2.60;;;2.50;;
7162;SDS011;3623;47.098;15.446;2022-08-03T08:20:15;2.67;;;2.47;;
7162;SDS011;3623;47.098;15.446;2022-08-03T08:22:43;2.87;;;2.40;;
7162;SDS011;3623;47.098;15.446;2022-08-03T08:25:11;2.80;;;2.70;;
7162;SDS011;3623;47.098;15.446;2022-08-03T08:27:42;2.40;;;2.20;;
7162;SDS011;3623;47.098;15.446;2022-08-03T08:30:11;2.30;;;2.10;;
7162;SDS011;3623;47.098;15.446;2022-08-03T08:32:39;2.80;;;2.60;;
7162;SDS011;3623;47.098;15.446;2022-08-03T08:35:06;2.83;;;2.63;;
7162;SDS011;3623;47.098;15.446;2022-08-03T08:37:34;2.47;;;2.27;;
7162;SDS011;3623;47.098;15.446;2022-08-03T08:40:02;2.50;;;2.40;;
7162;SDS011;3623;47.098;15.446;2022-08-03T08:42:31;2.87;;;2.67;;
7162;SDS011;3623;47.098;15.446;2022-08-03T08:44:59;3.20;;;3.00;;
7162;SDS011;3623;47.098;15.446;2022-08-03T08:47:28;2.13;;;2.03;;
7162;SDS011;3623;47.098;15.446;2022-08-03T08:49:57;2.67;;;2.57;;
7162;SDS011;3623;47.098;15.446;2022-08-03T08:52:25;2.80;;;2.70;;
7162;SDS011;3623;47.098;15.446;2022-08-03T08:54:54;5.60;;;2.47;;
7162;SDS011;3623;47.098;15.446;2022-08-03T08:57:24;2.47;;;2.30;;
7162;SDS011;3623;47.098;15.446;2022-08-03T08:59:56;3.30;;;3.03;;
7162;SDS011;3623;47.098;15.446;2022-08-03T09:02:24;2.70;;;2.60;;
7162;SDS011;3623;47.098;15.446;2022-08-03T09:04:51;2.87;;;2.77;;
7162;SDS011;3623;47.098;15.446;2022-08-03T09:07:19;2.80;;;2.70;;
7162;SDS011;3623;47.098;15.446;2022-08-03T09:09:46;3.30;;;3.10;;
7162;SDS011;3623;47.098;15.446;2022-08-03T09:12:14;3.33;;;3.00;;
7162;SDS011;3623;47.098;15.446;2022-08-03T09:14:41;3.30;;;3.10;;
7162;SDS011;3623;47.098;15.446;2022-08-03T09:17:09;3.00;;;2.80;;
7162;SDS011;3623;47.098;15.446;2022-08-03T09:19:37;3.03;;;2.83;;
7162;SDS011;3623;47.098;15.446;2022-08-03T09:22:07;2.40;;;2.30;;
7162;SDS011;3623;47.098;15.446;2022-08-03T09:24:37;2.97;;;2.77;;
7162;SDS011;3623;47.098;15.446;2022-08-03T09:27:19;2.73;;;2.63;;
7162;SDS011;3623;47.098;15.446;2022-08-03T09:29:46;2.60;;;2.50;;
7162;SDS011;3623;47.098;15.446;2022-08-03T09:32:17;2.60;;;2.50;;
7162;SDS011;3623;47.098;15.446;2022-08-03T09:34:46;2.83;;;2.63;;
7162;SDS011;3623;47.098;15.446;2022-08-03T09:37:15;2.40;;;2.30;;
7162;SDS011;3623;47.098;15.446;2022-08-03T09:39:43;2.67;;;2.47;;
7162;SDS011;3623;47.098;15.446;2022-08-03T09:42:11;2.93;;;2.73;;
7162;SDS011;3623;47.098;15.446;2022-08-03T09:44:39;2.43;;;2.33;;
7162;SDS011;3623;47.098;15.446;2022-08-03T09:47:08;2.17;;;2.10;;
7162;SDS011;3623;47.098;15.446;2022-08-03T09:49:38;3.60;;;2.27;;
7162;SDS011;3623;47.098;15.446;2022-08-03T09:52:14;2.60;;;2.43;;
7162;SDS011;3623;47.098;15.446;2022-08-03T09:54:43;2.57;;;2.37;;
7162;SDS011;3623;47.098;15.446;2022-08-03T09:57:19;3.10;;;3.00;;
7162;SDS011;3623;47.098;15.446;2022-08-03T09:59:48;2.73;;;2.63;;
7162;SDS011;3623;47.098;15.446;2022-08-03T10:02:22;4.23;;;2.60;;
7162;SDS011;3623;47.098;15.446;2022-08-03T10:04:53;2.97;;;2.77;;
7162;SDS011;3623;47.098;15.446;2022-08-03T10:07:20;5.80;;;2.90;;
7162;SDS011;3623;47.098;15.446;2022-08-03T10:09:52;2.77;;;2.57;;
7162;SDS011;3623;47.098;15.446;2022-08-03T10:12:21;2.90;;;2.80;;
7162;SDS011;3623;47.098;15.446;2022-08-03T10:14:49;3.00;;;2.83;;
7162;SDS011;3623;47.098;15.446;2022-08-03T10:17:17;3.60;;;2.87;;
7162;SDS011;3623;47.098;15.446;2022-08-03T10:19:46;2.50;;;2.40;;
7162;SDS011;3623;47.098;15.446;2022-08-03T10:22:15;3.20;;;2.90;;
7162;SDS011;3623;47.098;15.446;2022-08-03T10:24:48;5.20;;;3.40;;
7162;SDS011;3623;47.098;15.446;2022-08-03T10:27:19;2.80;;;2.63;;
7162;SDS011;3623;47.098;15.446;2022-08-03T10:29:50;2.33;;;2.10;;
7162;SDS011;3623;47.098;15.446;2022-08-03T10:32:20;2.73;;;2.47;;
7162;SDS011;3623;47.098;15.446;2022-08-03T10:34:53;2.20;;;2.10;;
7162;SDS011;3623;47.098;15.446;2022-08-03T10:37:32;2.50;;;2.40;;
7162;SDS011;3623;47.098;15.446;2022-08-03T10:40:12;2.17;;;2.07;;
7162;SDS011;3623;47.098;15.446;2022-08-03T10:42:41;2.03;;;1.93;;
7162;SDS011;3623;47.098;15.446;2022-08-03T10:45:12;2.30;;;2.20;;
7162;SDS011;3623;47.098;15.446;2022-08-03T10:47:45;2.27;;;2.17;;
7162;SDS011;3623;47.098;15.446;2022-08-03T10:50:13;2.60;;;2.40;;
7162;SDS011;3623;47.098;15.446;2022-08-03T10:52:54;3.83;;;2.07;;
7162;SDS011;3623;47.098;15.446;2022-08-03T10:55:32;2.00;;;1.90;;
7162;SDS011;3623;47.098;15.446;2022-08-03T11:01:14;1.80;;;1.77;;
7162;SDS011;3623;47.098;15.446;2022-08-03T11:06:40;2.37;;;2.20;;
7162;SDS011;3623;47.098;15.446;2022-08-03T11:09:18;1.80;;;1.80;;
7162;SDS011;3623;47.098;15.446;2022-08-03T11:11:46;2.27;;;2.17;;
7162;SDS011;3623;47.098;15.446;2022-08-03T11:14:14;2.40;;;2.30;;
7162;SDS011;3623;47.098;15.446;2022-08-03T11:16:44;2.50;;;2.40;;
7162;SDS011;3623;47.098;15.446;2022-08-03T11:19:13;2.90;;;1.83;;
7162;SDS011;3623;47.098;15.446;2022-08-03T11:21:54;1.80;;;1.80;;
7162;SDS011;3623;47.098;15.446;2022-08-03T11:27:26;2.70;;;1.90;;
7162;SDS011;3623;47.098;15.446;2022-08-03T11:29:58;3.00;;;1.50;;
7162;SDS011;3623;47.098;15.446;2022-08-03T11:35:21;1.93;;;1.83;;
7162;SDS011;3623;47.098;15.446;2022-08-03T11:38:02;1.77;;;1.67;;
7162;SDS011;3623;47.098;15.446;2022-08-03T11:40:33;2.03;;;1.90;;
7162;SDS011;3623;47.098;15.446;2022-08-03T11:43:02;2.00;;;1.80;;
7162;SDS011;3623;47.098;15.446;2022-08-03T11:45:29;2.47;;;2.27;;
7162;SDS011;3623;47.098;15.446;2022-08-03T11:47:57;3.70;;;2.20;;
7162;SDS011;3623;47.098;15.446;2022-08-03T11:50:34;1.60;;;1.60;;
7162;SDS011;3623;47.098;15.446;2022-08-03T11:53:02;2.00;;;1.90;;
7162;SDS011;3623;47.098;15.446;2022-08-03T11:55:30;1.50;;;1.50;;
7162;SDS011;3623;47.098;15.446;2022-08-03T11:58:01;2.27;;;2.07;;
7162;SDS011;3623;47.098;15.446;2022-08-03T12:00:29;3.03;;;2.10;;
7162;SDS011;3623;47.098;15.446;2022-08-03T12:02:59;2.30;;;2.20;;
7162;SDS011;3623;47.098;15.446;2022-08-03T12:05:37;2.40;;;1.90;;
7162;SDS011;3623;47.098;15.446;2022-08-03T12:08:07;2.20;;;2.10;;
7162;SDS011;3623;47.098;15.446;2022-08-03T12:10:36;2.20;;;2.10;;
7162;SDS011;3623;47.098;15.446;2022-08-03T12:13:05;3.40;;;2.70;;
7162;SDS011;3623;47.098;15.446;2022-08-03T12:15:33;2.30;;;2.10;;
7162;SDS011;3623;47.098;15.446;2022-08-03T12:18:03;1.60;;;1.60;;
7162;SDS011;3623;47.098;15.446;2022-08-03T12:20:38;2.27;;;2.17;;
7162;SDS011;3623;47.098;15.446;2022-08-03T12:23:05;2.90;;;2.00;;
7162;SDS011;3623;47.098;15.446;2022-08-03T12:25:34;1.93;;;1.83;;
7162;SDS011;3623;47.098;15.446;2022-08-03T12:28:07;2.23;;;2.03;;
7162;SDS011;3623;47.098;15.446;2022-08-03T12:30:40;2.90;;;2.70;;
7162;SDS011;3623;47.098;15.446;2022-08-03T12:33:15;1.93;;;1.70;;
7162;SDS011;3623;47.098;15.446;2022-08-03T12:35:59;1.97;;;1.90;;
7162;SDS011;3623;47.098;15.446;2022-08-03T12:38:29;2.00;;;1.80;;
7162;SDS011;3623;47.098;15.446;2022-08-03T12:40:58;1.57;;;1.57;;
7162;SDS011;3623;47.098;15.446;2022-08-03T12:43:28;1.60;;;1.60;;
7162;SDS011;3623;47.098;15.446;2022-08-03T12:46:08;2.03;;;2.00;;
7162;SDS011;3623;47.098;15.446;2022-08-03T12:51:31;2.20;;;2.10;;
7162;SDS011;3623;47.098;15.446;2022-08-03T12:53:59;2.20;;;2.00;;
7162;SDS011;3623;47.098;15.446;2022-08-03T12:56:27;2.03;;;1.90;;
7162;SDS011;3623;47.098;15.446;2022-08-03T12:58:56;2.00;;;1.90;;
7162;SDS011;3623;47.098;15.446;2022-08-03T13:01:23;2.07;;;1.97;;
7162;SDS011;3623;47.098;15.446;2022-08-03T13:03:52;1.93;;;1.80;;
7162;SDS011;3623;47.098;15.446;2022-08-03T13:06:20;4.10;;;2.20;;
7162;SDS011;3623;47.098;15.446;2022-08-03T13:08:49;1.93;;;1.83;;
7162;SDS011;3623;47.098;15.446;2022-08-03T13:11:27;2.03;;;1.93;;
7162;SDS011;3623;47.098;15.446;2022-08-03T13:13:56;1.87;;;1.80;;
7162;SDS011;3623;47.098;15.446;2022-08-03T13:16:24;1.87;;;1.60;;
7162;SDS011;3623;47.098;15.446;2022-08-03T13:18:51;3.53;;;1.70;;
7162;SDS011;3623;47.098;15.446;2022-08-03T13:21:20;2.97;;;1.90;;
7162;SDS011;3623;47.098;15.446;2022-08-03T13:23:47;2.70;;;1.63;;
7162;SDS011;3623;47.098;15.446;2022-08-03T13:26:14;1.80;;;1.70;;
7162;SDS011;3623;47.098;15.446;2022-08-03T13:28:41;2.00;;;1.90;;
7162;SDS011;3623;47.098;15.446;2022-08-03T13:31:10;1.60;;;1.50;;
7162;SDS011;3623;47.098;15.446;2022-08-03T13:33:37;4.30;;;1.90;;
7162;SDS011;3623;47.098;15.446;2022-08-03T13:36:05;2.93;;;1.60;;
7162;SDS011;3623;47.098;15.446;2022-08-03T13:38:33;2.23;;;1.90;;
7162;SDS011;3623;47.098;15.446;2022-08-03T13:41:00;2.40;;;2.20;;
7162;SDS011;3623;47.098;15.446;2022-08-03T13:43:27;2.10;;;2.00;;
7162;SDS011;3623;47.098;15.446;2022-08-03T13:45:55;2.10;;;1.90;;
7162;SDS011;3623;47.098;15.446;2022-08-03T13:48:23;2.10;;;1.90;;
7162;SDS011;3623;47.098;15.446;2022-08-03T13:50:51;2.70;;;2.00;;
7162;SDS011;3623;47.098;15.446;2022-08-03T13:53:18;2.87;;;1.97;;
7162;SDS011;3623;47.098;15.446;2022-08-03T13:55:46;3.50;;;1.90;;
7162;SDS011;3623;47.098;15.446;2022-08-03T13:58:13;1.87;;;1.77;;
7162;SDS011;3623;47.098;15.446;2022-08-03T14:00:40;2.00;;;1.90;;
7162;SDS011;3623;47.098;15.446;2022-08-03T14:03:07;2.20;;;2.10;;
7162;SDS011;3623;47.098;15.446;2022-08-03T14:05:36;2.40;;;1.80;;
7162;SDS011;3623;47.098;15.446;2022-08-03T14:08:03;3.33;;;1.80;;
7162;SDS011;3623;47.098;15.446;2022-08-03T14:10:32;2.17;;;2.03;;
7162;SDS011;3623;47.098;15.446;2022-08-03T14:13:01;2.20;;;2.00;;
7162;SDS011;3623;47.098;15.446;2022-08-03T14:15:29;1.70;;;1.60;;
7162;SDS011;3623;47.098;15.446;2022-08-03T14:17:57;1.70;;;1.60;;
7162;SDS011;3623;47.098;15.446;2022-08-03T14:20:24;1.83;;;1.73;;
7162;SDS011;3623;47.098;15.446;2022-08-03T14:22:53;1.60;;;1.50;;
7162;SDS011;3623;47.098;15.446;2022-08-03T14:25:20;3.40;;;1.70;;
7162;SDS011;3623;47.098;15.446;2022-08-03T14:27:47;1.83;;;1.73;;
7162;SDS011;3623;47.098;15.446;2022-08-03T14:30:15;1.70;;;1.60;;
7162;SDS011;3623;47.098;15.446;2022-08-03T14:32:42;1.93;;;1.83;;
7162;SDS011;3623;47.098;15.446;2022-08-03T14:35:10;1.93;;;1.60;;
7162;SDS011;3623;47.098;15.446;2022-08-03T14:37:37;1.80;;;1.70;;
7162;SDS011;3623;47.098;15.446;2022-08-03T14:40:07;5.33;;;1.87;;
7162;SDS011;3623;47.098;15.446;2022-08-03T14:42:34;2.60;;;1.80;;
7162;SDS011;3623;47.098;15.446;2022-08-03T14:45:01;1.70;;;1.70;;
7162;SDS011;3623;47.098;15.446;2022-08-03T14:47:29;3.03;;;1.50;;
7162;SDS011;3623;47.098;15.446;2022-08-03T14:49:57;2.37;;;2.17;;
7162;SDS011;3623;47.098;15.446;2022-08-03T14:52:24;1.60;;;1.60;;
7162;SDS011;3623;47.098;15.446;2022-08-03T14:54:51;1.33;;;1.33;;
7162;SDS011;3623;47.098;15.446;2022-08-03T14:57:20;2.17;;;1.70;;
7162;SDS011;3623;47.098;15.446;2022-08-03T14:59:47;3.93;;;1.80;;
7162;SDS011;3623;47.098;15.446;2022-08-03T15:02:14;1.80;;;1.70;;
7162;SDS011;3623;47.098;15.446;2022-08-03T15:04:41;1.60;;;1.50;;
7162;SDS011;3623;47.098;15.446;2022-08-03T15:07:09;1.93;;;1.83;;
7162;SDS011;3623;47.098;15.446;2022-08-03T15:09:36;1.60;;;1.60;;
7162;SDS011;3623;47.098;15.446;2022-08-03T15:12:04;6.47;;;3.03;;
7162;SDS011;3623;47.098;15.446;2022-08-03T15:14:32;2.50;;;1.50;;
7162;SDS011;3623;47.098;15.446;2022-08-03T15:17:00;1.93;;;1.83;;
7162;SDS011;3623;47.098;15.446;2022-08-03T15:19:27;2.00;;;1.70;;
7162;SDS011;3623;47.098;15.446;2022-08-03T15:21:54;1.83;;;1.30;;
7162;SDS011;3623;47.098;15.446;2022-08-03T15:24:21;2.13;;;1.70;;
7162;SDS011;3623;47.098;15.446;2022-08-03T15:26:49;1.63;;;1.53;;
7162;SDS011;3623;47.098;15.446;2022-08-03T15:29:17;1.80;;;1.70;;